.
WxDataArchive / Data Records for 2013-04-11
2013-04-10 April 2013 2013-04-12

Data Records for Thursday, 11 April 2013

Time	Temp	Chill	HIndex	Humid	Dewpt	 Wind 	HiWind	WindDir	Rain 	Barom 
-----	----	-----	------	-----	-----	------	------	-------	-----	----- 
00:00	44.6	41.9	44.6	95	43.3	5	13	90	0.00	29.860 
00:05	44.3	39.8	44.3	94	42.7	8	14	90	0.00	29.860 
00:10	44.2	41.4	44.2	94	42.6	5	13	90	0.00	29.860 
00:15	44.2	41.4	44.2	94	42.6	5	16	112	0.00	29.833 
00:20	44.1	40.1	44.1	94	42.5	7	15	112	0.00	29.833 
00:25	44.1	40.6	44.1	94	42.5	6	13	112	0.00	29.833 
00:30	43.9	39.8	43.9	94	42.3	7	14	90	0.00	29.844 
00:35	43.9	41.1	43.9	94	42.3	5	11	90	0.00	29.844 
00:40	43.9	41.8	43.9	94	42.3	4	11	90	0.00	29.844 
00:45	43.9	41.1	43.9	94	42.3	5	10	90	0.01	29.864 
00:50	43.9	41.1	43.9	94	42.3	5	10	112	0.02	29.864 
00:55	43.8	40.3	43.8	94	42.2	6	13	112	0.01	29.864 
01:00	43.6	40.0	43.6	95	42.3	6	15	112	0.02	29.831 
01:05	43.6	40.7	43.6	95	42.3	5	12	112	0.02	29.831 
01:10	43.6	40.7	43.6	95	42.3	5	10	90	0.01	29.831 
01:15	43.8	43.8	43.8	95	42.5	2	8	90	0.01	29.858 
01:20	43.8	41.7	43.8	95	42.5	4	13	112	0.02	29.858 
01:25	43.8	43.8	43.8	95	42.5	1	7	112	0.01	29.858 
01:30	43.6	38.5	43.6	95	42.3	9	16	90	0.01	29.822 
01:35	43.5	43.5	43.5	95	42.2	3	11	90	0.01	29.822 
01:40	43.5	43.5	43.5	95	42.2	1	4	45	0.01	29.822 
01:45	43.5	40.6	43.5	95	42.2	5	14	90	0.01	29.821 
01:50	43.5	43.5	43.5	95	42.2	3	16	112	0.01	29.821 
01:55	43.3	41.1	43.3	95	42.0	4	13	90	0.00	29.821 
02:00	43.3	39.1	43.3	95	42.0	7	15	112	0.01	29.816 
02:05	43.2	39.0	43.2	95	41.9	7	14	112	0.01	29.816 
02:10	43.2	39.6	43.2	95	41.9	6	17	90	0.01	29.816 
02:15	42.9	38.1	42.9	95	41.6	8	18	90	0.00	29.808 
02:20	42.8	38.0	42.8	95	41.5	8	16	112	0.01	29.808 
02:25	42.8	38.5	42.8	94	41.2	7	15	90	0.00	29.808 
02:30	42.6	37.8	42.6	95	41.3	8	16	90	0.00	29.796 
02:35	42.5	38.2	42.5	94	40.9	7	15	112	0.00	29.796 
02:40	42.3	37.9	42.3	94	40.7	7	14	112	0.01	29.796 
02:45	42.3	38.5	42.3	94	40.7	6	13	90	0.00	29.791 
02:50	42.3	36.9	42.3	94	40.7	9	16	90	0.01	29.791 
02:55	42.3	37.9	42.3	94	40.7	7	12	90	0.00	29.791 
03:00	42.3	38.5	42.3	94	40.7	6	14	90	0.00	29.770 
03:05	42.5	39.4	42.5	94	40.9	5	15	90	0.00	29.770 
03:10	42.3	37.9	42.3	94	40.7	7	15	112	0.01	29.770 
03:15	42.3	39.2	42.3	94	40.7	5	13	90	0.00	29.760 
03:20	42.3	38.5	42.3	94	40.7	6	14	90	0.00	29.760 
03:25	42.6	37.8	42.6	94	41.0	8	15	270	0.00	29.760 
03:30	42.6	40.3	42.6	94	41.0	4	10	270	0.00	29.945 
03:35	42.5	42.5	42.5	94	40.9	3	11	248	0.01	29.945 
03:40	42.5	42.5	42.5	94	40.9	1	3	22	0.00	29.945 
03:45	42.5	42.5	42.5	94	40.9	2	6	90	0.01	29.838 
03:50	42.6	42.6	42.6	94	41.0	2	5	90	0.00	29.838 
03:55	42.6	42.6	42.6	94	41.0	1	5	90	0.00	29.838 
04:00	42.5	40.2	42.5	94	40.9	4	11	90	0.00	29.844 
04:05	42.3	42.3	42.3	94	40.7	3	7	112	0.00	29.844 
04:10	42.2	42.2	42.2	94	40.6	3	8	112	0.01	29.844 
04:15	42.2	42.2	42.2	94	40.6	2	6	90	0.00	29.854 
04:20	42.2	42.2	42.2	94	40.6	3	6	90	0.00	29.854 
04:25	42.2	42.2	42.2	95	40.9	2	4	112	0.01	29.854 
04:30	42.2	42.2	42.2	95	40.9	2	5	112	0.00	29.853 
04:35	42.1	39.7	42.1	95	40.8	4	10	90	0.00	29.853 
04:40	42.1	39.7	42.1	95	40.8	4	10	90	0.01	29.853 
04:45	41.9	38.7	41.9	95	40.6	5	10	90	0.00	29.841 
04:50	41.8	38.6	41.8	95	40.5	5	11	112	0.00	29.841 
04:55	41.8	39.4	41.8	95	40.5	4	10	112	0.01	29.841 
05:00	41.8	38.6	41.8	95	40.5	5	11	112	0.00	29.831 
05:05	41.8	38.6	41.8	95	40.5	5	10	90	0.00	29.831 
05:10	41.6	37.7	41.6	95	40.3	6	13	112	0.01	29.831 
05:15	41.6	37.1	41.6	95	40.3	7	13	112	0.00	29.813 
05:20	41.5	36.9	41.5	95	40.2	7	14	112	0.00	29.813 
05:25	41.5	36.4	41.5	95	40.2	8	15	112	0.00	29.813 
05:30	41.5	37.5	41.5	95	40.2	6	13	90	0.01	29.803 
05:35	41.5	38.2	41.5	95	40.2	5	12	90	0.00	29.803 
05:40	41.5	37.5	41.5	95	40.2	6	11	90	0.00	29.803 
05:45	41.5	36.9	41.5	95	40.2	7	13	90	0.00	29.795 
05:50	41.5	37.5	41.5	95	40.2	6	14	90	0.01	29.795 
05:55	41.5	37.5	41.5	95	40.2	6	12	112	0.00	29.795 
06:00	41.5	37.5	41.5	95	40.2	6	13	90	0.00	29.794 
06:05	41.5	38.2	41.5	95	40.2	5	13	90	0.00	29.794 
06:10	41.5	38.2	41.5	95	40.2	5	10	90	0.01	29.794 
06:15	41.5	38.2	41.5	95	40.2	5	10	90	0.00	29.791 
06:20	41.5	37.5	41.5	95	40.2	6	13	90	0.00	29.791 
06:25	41.5	36.9	41.5	95	40.2	7	14	90	0.00	29.791 
06:30	41.5	37.5	41.5	95	40.2	6	12	90	0.01	29.787 
06:35	41.6	39.2	41.6	95	40.3	4	9	112	0.00	29.787 
06:40	41.6	39.2	41.6	95	40.3	4	7	90	0.00	29.787 
06:45	41.6	41.6	41.6	95	40.3	3	7	90	0.00	29.795 
06:50	41.6	38.4	41.6	95	40.3	5	10	90	0.00	29.795 
06:55	41.6	41.6	41.6	95	40.3	3	8	90	0.01	29.795 
07:00	41.8	41.8	41.8	95	40.5	3	7	90	0.00	29.801 
07:05	41.8	39.4	41.8	95	40.5	4	8	90	0.00	29.801 
07:10	41.8	41.8	41.8	95	40.5	3	7	90	0.00	29.801 
07:15	41.8	38.6	41.8	95	40.5	5	11	90	0.00	29.802 
07:20	41.9	38.7	41.9	95	40.6	5	10	112	0.01	29.802 
07:25	41.9	39.5	41.9	95	40.6	4	9	90	0.00	29.802 
07:30	41.9	39.5	41.9	95	40.6	4	10	90	0.00	29.795 
07:35	41.9	39.5	41.9	95	40.6	4	10	90	0.00	29.795 
07:40	41.8	37.9	41.8	95	40.5	6	13	90	0.00	29.795 
07:45	41.8	39.4	41.8	95	40.5	4	10	90	0.00	29.789 
07:50	41.9	39.5	41.9	95	40.6	4	11	90	0.01	29.789 
07:55	41.9	41.9	41.9	95	40.6	3	7	90	0.00	29.789 
08:00	41.9	38.0	41.9	95	40.6	6	12	90	0.00	29.791 
08:05	41.9	39.5	41.9	95	40.6	4	8	90	0.00	29.791 
08:10	41.9	39.5	41.9	95	40.6	4	10	90	0.00	29.791 
08:15	41.9	39.5	41.9	95	40.6	4	13	112	0.01	29.780 
08:20	41.8	37.3	41.8	95	40.5	7	15	112	0.00	29.780 
08:25	41.6	37.1	41.6	95	40.3	7	15	112	0.00	29.780 
08:30	41.6	38.4	41.6	95	40.3	5	12	90	0.00	29.795 
08:35	41.8	39.4	41.8	95	40.5	4	9	90	0.00	29.795 
08:40	41.8	41.8	41.8	95	40.5	3	11	90	0.00	29.795 
08:45	41.8	39.4	41.8	95	40.5	4	9	90	0.00	29.799 
08:50	41.6	37.7	41.6	95	40.3	6	12	90	0.01	29.799 
08:55	41.6	38.4	41.6	95	40.3	5	11	90	0.00	29.799 
09:00	41.5	37.5	41.5	94	39.9	6	14	90	0.00	29.778 
09:05	41.6	39.2	41.6	94	40.0	4	9	90	0.00	29.778 
09:10	41.5	38.2	41.5	94	39.9	5	13	112	0.00	29.778 
09:15	41.5	38.2	41.5	94	39.9	5	14	90	0.01	29.797 
09:20	41.5	37.5	41.5	94	39.9	6	11	112	0.00	29.797 
09:25	41.5	37.5	41.5	94	39.9	6	13	112	0.00	29.797 
09:30	41.5	37.5	41.5	94	39.9	6	15	90	0.00	29.781 
09:35	41.6	37.7	41.6	94	40.0	6	14	90	0.00	29.781 
09:40	41.6	37.7	41.6	94	40.0	6	13	90	0.00	29.781 
09:45	41.8	41.8	41.8	94	40.2	3	10	90	0.00	29.777 
09:50	41.8	38.6	41.8	94	40.2	5	10	90	0.01	29.777 
09:55	41.8	41.8	41.8	94	40.2	3	10	90	0.00	29.777 
10:00	41.8	41.8	41.8	94	40.2	3	11	90	0.00	29.765 
10:05	41.8	39.4	41.8	94	40.2	4	10	112	0.00	29.765 
10:10	41.6	39.2	41.6	94	40.0	4	12	90	0.00	29.765 
10:15	41.6	38.4	41.6	94	40.0	5	15	90	0.01	29.761 
10:20	41.6	39.2	41.6	94	40.0	4	11	90	0.00	29.761 
10:25	41.6	37.7	41.6	94	40.0	6	12	90	0.00	29.761 
10:30	41.6	37.1	41.6	94	40.0	7	12	112	0.00	29.774 
10:35	41.5	39.1	41.5	94	39.9	4	12	112	0.00	29.774 
10:40	41.6	38.4	41.6	94	40.0	5	11	112	0.00	29.774 
10:45	41.6	39.2	41.6	94	40.0	4	12	112	0.00	29.788 
10:50	41.6	38.4	41.6	94	40.0	5	15	112	0.01	29.788 
10:55	41.6	38.4	41.6	94	40.0	5	12	90	0.00	29.788 
11:00	41.6	37.7	41.6	94	40.0	6	14	90	0.00	29.789 
11:05	41.6	37.1	41.6	94	40.0	7	15	112	0.00	29.789 
11:10	41.8	38.6	41.8	94	40.2	5	12	90	0.00	29.789 
11:15	41.9	38.7	41.9	94	40.3	5	14	112	0.00	29.783 
11:20	41.8	37.3	41.8	94	40.2	7	15	112	0.01	29.783 
11:25	41.9	38.0	41.9	94	40.3	6	13	90	0.00	29.783 
11:30	41.9	36.9	41.9	94	40.3	8	15	90	0.00	29.780 
11:35	41.9	37.4	41.9	94	40.3	7	14	112	0.00	29.780 
11:40	42.2	38.4	42.2	94	40.6	6	12	112	0.00	29.780 
11:45	42.3	40.0	42.3	94	40.7	4	10	112	0.00	29.771 
11:50	42.2	36.8	42.2	94	40.6	9	15	90	0.00	29.771 
11:55	42.1	37.1	42.1	94	40.5	8	14	90	0.01	29.771 
12:00	42.1	37.7	42.1	94	40.5	7	13	90	0.00	29.768 
12:05	42.2	37.3	42.2	94	40.6	8	13	112	0.00	29.768 
12:10	42.2	37.8	42.2	94	40.6	7	15	90	0.00	29.768 
12:15	42.2	37.8	42.2	94	40.6	7	12	112	0.00	29.773 
12:20	42.3	38.5	42.3	94	40.7	6	12	90	0.00	29.773 
12:25	42.2	37.8	42.2	94	40.6	7	18	90	0.01	29.773 
12:30	42.2	37.3	42.2	94	40.6	8	16	90	0.00	29.765 
12:35	42.1	36.7	42.1	94	40.5	9	14	90	0.00	29.765 
12:40	42.1	37.7	42.1	94	40.5	7	12	90	0.00	29.765 
12:45	42.1	37.7	42.1	94	40.5	7	15	112	0.00	29.771 
12:50	42.1	38.3	42.1	94	40.5	6	13	112	0.00	29.771 
12:55	42.2	38.4	42.2	94	40.6	6	16	90	0.01	29.771 
13:00	42.2	38.4	42.2	94	40.6	6	15	90	0.00	29.776 
13:05	42.2	38.4	42.2	94	40.6	6	15	112	0.00	29.776 
13:10	42.2	39.1	42.2	94	40.6	5	11	112	0.00	29.776 
13:15	42.3	38.5	42.3	94	40.7	6	14	112	0.00	29.770 
13:20	42.5	42.5	42.5	95	41.2	3	9	90	0.00	29.770 
13:25	42.3	37.9	42.3	94	40.7	7	14	90	0.01	29.770 
13:30	42.3	38.5	42.3	94	40.7	6	12	90	0.00	29.766 
13:35	42.3	37.4	42.3	94	40.7	8	17	90	0.00	29.766 
13:40	42.2	37.3	42.2	95	40.9	8	14	90	0.00	29.766 
13:45	42.2	36.8	42.2	95	40.9	9	15	90	0.00	29.752 
13:50	42.3	38.5	42.3	95	41.0	6	13	90	0.00	29.752 
13:55	42.1	37.1	42.1	94	40.5	8	18	90	0.01	29.752 
14:00	41.9	36.4	41.9	95	40.6	9	18	90	0.00	29.738 
14:05	41.9	37.4	41.9	95	40.6	7	15	112	0.00	29.738 
14:10	42.1	37.7	42.1	95	40.8	7	15	90	0.00	29.738 
14:15	41.9	38.0	41.9	95	40.6	6	13	90	0.00	29.734 
14:20	41.9	37.4	41.9	95	40.6	7	13	90	0.01	29.734 
14:25	41.8	36.8	41.8	95	40.5	8	14	90	0.00	29.734 
14:30	41.5	35.9	41.5	95	40.2	9	16	90	0.00	29.738 
14:35	41.3	36.7	41.3	95	40.0	7	14	112	0.00	29.738 
14:40	41.3	36.7	41.3	95	40.0	7	14	112	0.00	29.738 
14:45	41.2	36.0	41.2	95	39.9	8	15	90	0.01	29.727 
14:50	41.2	36.0	41.2	95	39.9	8	14	90	0.00	29.727 
14:55	41.2	36.0	41.2	95	39.9	8	14	90	0.00	29.727 
15:00	41.3	36.7	41.3	95	40.0	7	15	90	0.00	29.713 
15:05	41.2	35.6	41.2	95	39.9	9	18	90	0.00	29.713 
15:10	41.2	36.6	41.2	96	40.1	7	13	112	0.00	29.713 
15:15	41.3	37.3	41.3	96	40.2	6	11	90	0.01	29.716 
15:20	41.3	36.7	41.3	96	40.2	7	15	90	0.00	29.716 
15:25	41.3	37.3	41.3	96	40.2	6	15	90	0.00	29.716 
15:30	41.2	36.6	41.2	96	40.1	7	14	112	0.00	29.719 
15:35	41.2	36.6	41.2	96	40.1	7	15	90	0.00	29.719 
15:40	41.2	36.0	41.2	96	40.1	8	14	90	0.00	29.719 
15:45	41.2	36.6	41.2	96	40.1	7	14	90	0.01	29.708 
15:50	41.2	36.6	41.2	96	40.1	7	13	112	0.00	29.708 
15:55	41.2	36.0	41.2	96	40.1	8	14	90	0.00	29.708 
16:00	41.2	36.6	41.2	96	40.1	7	15	90	0.00	29.711 
16:05	41.2	37.2	41.2	96	40.1	6	11	90	0.00	29.711 
16:10	41.2	37.9	41.2	96	40.1	5	11	112	0.00	29.711 
16:15	41.2	37.9	41.2	96	40.1	5	13	90	0.00	29.719 
16:20	41.2	38.7	41.2	96	40.1	4	7	90	0.01	29.719 
16:25	41.2	37.2	41.2	96	40.1	6	14	90	0.00	29.719 
16:30	41.1	36.5	41.1	96	40.0	7	14	90	0.00	29.701 
16:35	41.1	38.6	41.1	96	40.0	4	11	90	0.00	29.701 
16:40	41.1	36.5	41.1	96	40.0	7	13	90	0.00	29.701 
16:45	41.1	35.9	41.1	96	40.0	8	14	90	0.00	29.692 
16:50	41.1	37.1	41.1	96	40.0	6	13	90	0.00	29.692 
16:55	41.1	38.6	41.1	96	40.0	4	9	112	0.00	29.692 
17:00	41.2	37.2	41.2	96	40.1	6	13	112	0.01	29.691 
17:05	41.1	37.1	41.1	96	40.0	6	14	90	0.00	29.691 
17:10	41.1	37.1	41.1	96	40.0	6	14	112	0.00	29.691 
17:15	41.1	37.8	41.1	96	40.0	5	13	112	0.00	29.681 
17:20	40.9	36.8	40.9	96	39.8	6	14	90	0.00	29.681 
17:25	40.8	36.7	40.8	96	39.7	6	13	90	0.00	29.681 
17:30	40.8	37.4	40.8	96	39.7	5	13	112	0.00	29.681 
17:35	40.8	37.4	40.8	96	39.7	5	11	112	0.00	29.681 
17:40	40.6	37.2	40.6	96	39.5	5	13	90	0.00	29.681 
17:45	40.6	36.5	40.6	96	39.5	6	14	90	0.00	29.683 
17:50	40.6	37.2	40.6	96	39.5	5	12	90	0.00	29.683 
17:55	40.6	40.6	40.6	96	39.5	2	4	90	0.01	29.683 
18:00	40.8	40.8	40.8	96	39.7	3	10	90	0.00	29.689 
18:05	40.5	35.7	40.5	96	39.5	7	13	90	0.00	29.689 
18:10	40.5	37.1	40.5	96	39.5	5	9	112	0.00	29.689 
18:15	40.5	37.9	40.5	96	39.5	4	10	90	0.00	29.686 
18:20	40.3	36.8	40.3	96	39.3	5	12	112	0.00	29.686 
18:25	40.2	36.0	40.2	96	39.2	6	14	90	0.00	29.686 
18:30	40.2	36.7	40.2	96	39.2	5	12	112	0.00	29.675 
18:35	40.2	37.5	40.2	96	39.2	4	11	90	0.00	29.675 
18:40	40.2	36.7	40.2	96	39.2	5	14	112	0.00	29.675 
18:45	40.2	40.2	40.2	96	39.2	3	11	90	0.00	29.668 
18:50	40.2	40.2	40.2	96	39.2	2	9	90	0.00	29.668 
18:55	40.2	37.5	40.2	96	39.2	4	13	112	0.00	29.668 
19:00	40.1	36.6	40.1	96	39.1	5	10	90	0.01	29.660 
19:05	39.9	36.4	39.9	96	38.9	5	11	90	0.00	29.660 
19:10	39.8	36.2	39.8	96	38.8	5	12	90	0.00	29.660 
19:15	39.8	35.5	39.8	96	38.8	6	13	112	0.00	29.654 
19:20	39.9	37.2	39.9	96	38.9	4	10	112	0.00	29.654 
19:25	39.8	36.2	39.8	96	38.8	5	12	90	0.00	29.654 
19:30	39.6	36.0	39.6	96	38.6	5	11	112	0.00	29.648 
19:35	39.5	34.5	39.5	96	38.5	7	15	112	0.00	29.648 
19:40	39.5	34.5	39.5	96	38.5	7	13	112	0.00	29.648 
19:45	39.5	35.9	39.5	96	38.5	5	9	90	0.00	29.645 
19:50	39.5	36.7	39.5	96	38.5	4	12	112	0.00	29.645 
19:55	39.3	35.7	39.3	96	38.3	5	16	90	0.00	29.645 
20:00	39.2	36.4	39.2	96	38.2	4	11	90	0.00	29.646 
20:05	39.2	35.5	39.2	96	38.2	5	11	112	0.00	29.646 
20:10	39.2	34.2	39.2	96	38.2	7	12	90	0.01	29.646 
20:15	39.2	35.5	39.2	96	38.2	5	11	112	0.00	29.636 
20:20	39.2	35.5	39.2	96	38.2	5	14	112	0.00	29.636 
20:25	39.2	35.5	39.2	96	38.2	5	10	90	0.00	29.636 
20:30	39.2	39.2	39.2	96	38.2	3	10	90	0.00	29.630 
20:35	39.3	35.7	39.3	96	38.3	5	11	90	0.00	29.630 
20:40	39.2	34.8	39.2	96	38.2	6	12	90	0.00	29.630 
20:45	39.2	36.4	39.2	96	38.2	4	9	112	0.00	29.614 
20:50	39.2	39.2	39.2	96	38.2	2	12	112	0.00	29.614 
20:55	39.3	39.3	39.3	96	38.3	2	9	90	0.00	29.614 
21:00	39.3	39.3	39.3	96	38.3	1	2	90	0.01	29.647 
21:05	39.3	39.3	39.3	96	38.3	1	3	90	0.00	29.647 
21:10	39.3	39.3	39.3	96	38.3	2	7	90	0.00	29.647 
21:15	39.3	39.3	39.3	96	38.3	2	6	90	0.00	29.614 
21:20	39.3	36.5	39.3	96	38.3	4	7	90	0.00	29.614 
21:25	39.3	39.3	39.3	96	38.3	3	10	90	0.00	29.614 
21:30	39.3	36.5	39.3	96	38.3	4	7	90	0.01	29.614 
21:35	39.3	39.3	39.3	96	38.3	3	10	90	0.00	29.614 
21:40	39.3	39.3	39.3	96	38.3	1	6	112	0.00	29.614 
21:45	39.3	39.3	39.3	96	38.3	1	4	112	0.00	29.618 
21:50	39.3	39.3	39.3	96	38.3	1	6	112	0.00	29.618 
21:55	39.3	39.3	39.3	96	38.3	2	6	112	0.01	29.618 
22:00	39.3	36.5	39.3	96	38.3	4	10	112	0.00	29.597 
22:05	39.3	36.5	39.3	96	38.3	4	10	112	0.00	29.597 
22:10	39.2	36.4	39.2	96	38.2	4	10	90	0.00	29.597 
22:15	39.2	39.2	39.2	96	38.2	2	6	112	0.00	29.582 
22:20	39.2	39.2	39.2	96	38.2	1	3	0	0.00	29.582 
22:25	39.2	39.2	39.2	96	38.2	1	5	90	0.01	29.582 
22:30	39.2	39.2	39.2	96	38.2	2	6	90	0.00	29.605 
22:35	39.2	39.2	39.2	96	38.2	1	3	90	0.00	29.605 
22:40	39.2	39.2	39.2	96	38.2	1	6	90	0.00	29.605 
22:45	39.2	39.2	39.2	96	38.2	1	4	90	0.00	29.595 
22:50	39.2	39.2	39.2	96	38.2	3	6	90	0.00	29.595 
22:55	39.2	39.2	39.2	96	38.2	0	3	90	0.00	29.595 
23:00	39.2	39.2	39.2	96	38.2	0	1	90	0.01	29.613 
23:05	39.2	39.2	39.2	96	38.2	0	0	---	0.00	29.613 
23:10	39.2	39.2	39.2	96	38.2	0	1	90	0.00	29.613 
23:15	39.2	39.2	39.2	96	38.2	0	3	90	0.00	29.603 
23:20	39.3	39.3	39.3	96	38.3	2	5	90	0.00	29.603 
23:25	39.3	39.3	39.3	96	38.3	2	6	90	0.00	29.603 
23:30	39.3	39.3	39.3	96	38.3	3	6	90	0.00	29.600 
23:35	39.3	39.3	39.3	96	38.3	2	5	90	0.01	29.600 
23:40	39.5	39.5	39.5	96	38.5	1	3	90	0.00	29.600 
23:45	39.5	39.5	39.5	96	38.5	1	4	90	0.00	29.596 
23:50	39.5	39.5	39.5	96	38.5	1	4	90	0.00	29.596 
23:55	39.5	39.5	39.5	96	38.5	1	6	90	0.00	29.596 

CoCoRaHS
IN-AL-39
A2 Web Hosting
Creative Commons License
GoDaddy
search engine by freefind advanced

loaded 2018-11-16 10:35:28 • last modified 2010-11-18 10:43:29
Privacy PolicyDisclaimer
• wx.awcolley.com is powered by PmWiki v.2002016 •
• all content (unless otherwise noted) © 2018 A W Colley